Time;durP1;ratioP1;P1;durP2;ratioP2;P2;SDS_P1;SDS_P2;PMS_P1;PMS_P2;Temp;Humidity;BMP_temperature;BMP_pressure;BME280_temperature;BME280_humidity;BME280_pressure;Samples;Min_cycle;Max_cycle;Signal;HPM_P1;HPM_P2
2023/07/31 00:01:02;;;;;;;0.90;0.87;;;;;15.40;96096.00;;;;5033701;28;20199;-59
2023/07/31 00:03:31;;;;;;;0.90;0.90;;;;;15.40;96095.00;;;;5033780;28;20200;-58
2023/07/31 00:05:58;;;;;;;0.63;0.63;;;;;15.30;96095.00;;;;5033415;28;20711;-59
2023/07/31 00:08:26;;;;;;;0.90;0.90;;;;;15.30;96100.00;;;;5034079;28;20200;-58
2023/07/31 00:10:53;;;;;;;0.50;0.50;;;;;15.30;96102.00;;;;5033820;28;20671;-58
2023/07/31 00:13:21;;;;;;;0.60;0.60;;;;;15.30;96107.00;;;;5033487;28;20189;-58
2023/07/31 00:15:48;;;;;;;1.87;1.20;;;;;15.40;96096.00;;;;5033552;28;20224;-58
2023/07/31 00:18:17;;;;;;;0.70;0.70;;;;;15.40;96096.00;;;;5033523;28;20196;-58
2023/07/31 00:20:45;;;;;;;0.60;0.60;;;;;15.50;96096.00;;;;5033694;28;20559;-58
2023/07/31 00:23:13;;;;;;;0.50;0.50;;;;;15.40;96100.00;;;;5033422;28;20533;-58
2023/07/31 00:25:40;;;;;;;0.73;0.73;;;;;15.30;96095.00;;;;5034138;28;20192;-58
2023/07/31 00:28:08;;;;;;;1.37;1.27;;;;;15.30;96092.00;;;;5034206;28;20195;-58
2023/07/31 00:30:35;;;;;;;0.93;0.93;;;;;15.30;96089.00;;;;5034208;28;20204;-58
2023/07/31 00:33:02;;;;;;;0.53;0.53;;;;;15.20;96089.00;;;;5033816;28;20196;-58
2023/07/31 00:35:30;;;;;;;1.60;1.50;;;;;15.20;96091.00;;;;5033701;28;20196;-58
2023/07/31 00:37:59;;;;;;;0.77;0.77;;;;;15.20;96093.00;;;;5034000;28;20193;-58
2023/07/31 00:40:27;;;;;;;0.50;0.50;;;;;15.30;96087.00;;;;5033477;28;20204;-59
2023/07/31 00:42:54;;;;;;;0.40;0.40;;;;;15.30;96079.00;;;;5033312;28;20201;-58
2023/07/31 00:45:24;;;;;;;0.80;0.80;;;;;15.30;96076.00;;;;5033347;28;20199;-59
2023/07/31 00:47:51;;;;;;;0.97;0.97;;;;;15.30;96090.00;;;;5033024;28;20220;-58
2023/07/31 00:50:19;;;;;;;0.80;0.80;;;;;15.20;96092.00;;;;5032019;28;20201;-57
2023/07/31 00:52:46;;;;;;;0.50;0.50;;;;;15.20;96091.00;;;;5033072;28;20189;-58
2023/07/31 00:55:15;;;;;;;0.60;0.60;;;;;15.10;96093.00;;;;5033115;28;20197;-59
2023/07/31 00:57:43;;;;;;;0.40;0.40;;;;;14.90;96092.00;;;;5032751;28;20228;-58
2023/07/31 01:00:11;;;;;;;0.60;0.60;;;;;14.90;96088.00;;;;5033323;28;20552;-58
2023/07/31 01:02:39;;;;;;;0.60;0.60;;;;;14.80;96085.00;;;;5032833;28;20722;-58
2023/07/31 01:05:07;;;;;;;0.57;0.57;;;;;14.80;96087.00;;;;5032976;28;20212;-56
2023/07/31 01:07:45;;;;;;;0.53;0.53;;;;;14.80;96081.00;;;;5031652;28;20699;-58
2023/07/31 01:10:21;;;;;;;0.90;0.90;;;;;14.90;96075.00;;;;5033172;28;20621;-56
2023/07/31 01:12:50;;;;;;;3.03;1.63;;;;;14.90;96078.00;;;;5032896;28;20188;-56
2023/07/31 01:15:19;;;;;;;0.60;0.60;;;;;14.90;96070.00;;;;5031487;28;20566;-57
2023/07/31 01:17:47;;;;;;;0.70;0.70;;;;;15.00;96071.00;;;;5031427;28;20229;-57
2023/07/31 01:20:18;;;;;;;0.53;0.53;;;;;14.90;96069.00;;;;5033236;28;20196;-56
2023/07/31 01:23:09;;;;;;;1.13;1.00;;;;;15.00;96073.00;;;;5033068;28;20185;-57
2023/07/31 01:25:50;;;;;;;0.60;0.60;;;;;14.90;96073.00;;;;5031433;28;20181;-57
2023/07/31 01:28:24;;;;;;;0.70;0.70;;;;;14.90;96072.00;;;;5032862;28;20177;-56
2023/07/31 01:30:53;;;;;;;0.87;0.87;;;;;14.80;96076.00;;;;5032671;28;20187;-57
2023/07/31 01:33:21;;;;;;;1.40;1.10;;;;;14.70;96075.00;;;;5033018;28;20193;-56
2023/07/31 01:35:50;;;;;;;0.80;0.80;;;;;14.80;96070.00;;;;5036357;28;20282;-57
2023/07/31 01:38:22;;;;;;;1.07;1.07;;;;;14.70;96071.00;;;;5035046;28;20215;-57
2023/07/31 01:40:54;;;;;;;1.03;1.03;;;;;14.60;96055.00;;;;5036655;28;20584;-57
2023/07/31 01:43:23;;;;;;;0.63;0.63;;;;;14.70;96058.00;;;;5036709;28;20235;-58
2023/07/31 01:45:50;;;;;;;0.60;0.60;;;;;14.60;96061.00;;;;5036305;28;20252;-57
2023/07/31 01:48:17;;;;;;;0.60;0.60;;;;;14.60;96052.00;;;;5036075;28;20264;-58
2023/07/31 01:50:45;;;;;;;0.67;0.67;;;;;14.60;96055.00;;;;5036450;28;20193;-57
2023/07/31 01:53:13;;;;;;;0.60;0.60;;;;;14.60;96057.00;;;;5036267;28;20189;-58
2023/07/31 01:55:40;;;;;;;0.60;0.60;;;;;14.50;96058.00;;;;5035884;28;20193;-58
2023/07/31 01:58:09;;;;;;;0.50;0.50;;;;;14.60;96045.00;;;;5035897;28;20599;-59
2023/07/31 02:00:36;;;;;;;0.70;0.70;;;;;14.60;96042.00;;;;5035950;28;20188;-57
2023/07/31 02:03:04;;;;;;;4.27;0.90;;;;;14.50;96043.00;;;;5036441;28;20617;-58
2023/07/31 02:05:31;;;;;;;0.70;0.70;;;;;14.50;96041.00;;;;5035765;28;20199;-57
2023/07/31 02:07:59;;;;;;;7.83;1.73;;;;;14.60;96045.00;;;;5036004;28;20617;-57
2023/07/31 02:10:26;;;;;;;0.53;0.53;;;;;14.60;96040.00;;;;5036011;28;20208;-57
2023/07/31 02:12:53;;;;;;;0.73;0.73;;;;;14.60;96032.00;;;;5034328;28;20552;-58
2023/07/31 02:15:22;;;;;;;0.70;0.70;;;;;14.50;96036.00;;;;5036398;28;20211;-58
2023/07/31 02:17:49;;;;;;;0.80;0.80;;;;;14.60;96022.00;;;;5035413;28;20216;-58
2023/07/31 02:20:17;;;;;;;6.67;1.60;;;;;14.50;96025.00;;;;5035804;28;20250;-58
2023/07/31 02:22:44;;;;;;;0.60;0.60;;;;;14.60;96025.00;;;;5035664;28;20552;-57
2023/07/31 02:25:12;;;;;;;2.13;1.33;;;;;14.60;96020.00;;;;5035731;28;20196;-58
2023/07/31 02:27:39;;;;;;;0.80;0.80;;;;;14.60;96020.00;;;;5035270;28;20205;-58
2023/07/31 02:30:08;;;;;;;0.93;0.93;;;;;14.60;96025.00;;;;5035688;28;20619;-58
2023/07/31 02:32:36;;;;;;;1.07;1.07;;;;;14.60;96017.00;;;;5035367;28;20729;-58
2023/07/31 02:35:04;;;;;;;0.70;0.70;;;;;14.50;96014.00;;;;5035441;28;20192;-59
2023/07/31 02:37:32;;;;;;;0.60;0.60;;;;;14.50;96009.00;;;;5035145;28;20251;-57
2023/07/31 02:39:59;;;;;;;1.70;0.97;;;;;14.40;96008.00;;;;5035436;28;20197;-57
2023/07/31 02:42:26;;;;;;;0.70;0.70;;;;;14.40;96005.00;;;;5035660;28;20246;-58
2023/07/31 02:44:55;;;;;;;0.70;0.70;;;;;14.30;96013.00;;;;5034433;28;20189;-58
2023/07/31 02:47:23;;;;;;;0.70;0.70;;;;;14.30;96004.00;;;;5034620;28;20217;-58
2023/07/31 02:49:51;;;;;;;0.70;0.70;;;;;14.30;95996.00;;;;5033705;28;20278;-57
2023/07/31 02:52:19;;;;;;;1.87;1.47;;;;;14.30;95994.00;;;;5034834;28;20201;-58
2023/07/31 02:54:47;;;;;;;0.70;0.70;;;;;14.20;95994.00;;;;5034979;28;20196;-58
2023/07/31 02:57:14;;;;;;;0.60;0.60;;;;;14.30;96004.00;;;;5035119;28;20247;-58
2023/07/31 02:59:42;;;;;;;0.70;0.70;;;;;14.30;95997.00;;;;5034606;28;20573;-57
2023/07/31 03:02:09;;;;;;;0.80;0.80;;;;;14.20;96003.00;;;;5034666;28;20212;-57
2023/07/31 03:04:36;;;;;;;0.60;0.60;;;;;14.10;95979.00;;;;5034844;28;20196;-58
2023/07/31 03:07:06;;;;;;;2.43;0.80;;;;;14.00;96007.00;;;;5034489;28;20212;-58
2023/07/31 03:09:33;;;;;;;0.60;0.60;;;;;14.00;96007.00;;;;5034675;28;20197;-57
2023/07/31 03:12:00;;;;;;;0.73;0.73;;;;;14.00;96007.00;;;;5035046;28;20193;-57
2023/07/31 03:14:28;;;;;;;0.60;0.60;;;;;14.00;95998.00;;;;5035075;28;20188;-57
2023/07/31 03:16:55;;;;;;;0.50;0.50;;;;;14.20;96003.00;;;;5034985;28;20221;-59
2023/07/31 03:19:23;;;;;;;0.60;0.60;;;;;14.30;96002.00;;;;5034966;28;20278;-57
2023/07/31 03:21:50;;;;;;;0.77;0.77;;;;;14.10;95993.00;;;;5034553;28;20196;-57
2023/07/31 03:24:19;;;;;;;0.90;0.90;;;;;13.90;96005.00;;;;5034357;28;20193;-59
2023/07/31 03:26:46;;;;;;;0.60;0.60;;;;;13.90;96009.00;;;;5034019;28;20645;-57
2023/07/31 03:29:13;;;;;;;0.63;0.63;;;;;13.70;96008.00;;;;5034416;28;20216;-57
2023/07/31 03:31:41;;;;;;;0.80;0.80;;;;;13.80;96011.00;;;;5034152;28;20196;-58
2023/07/31 03:34:08;;;;;;;1.00;0.83;;;;;13.80;96004.00;;;;5034088;28;20258;-57
2023/07/31 03:36:36;;;;;;;0.50;0.50;;;;;13.80;96001.00;;;;5034232;28;20216;-57
2023/07/31 03:39:04;;;;;;;1.83;1.67;;;;;13.90;96007.00;;;;5034216;28;20201;-57
2023/07/31 03:41:33;;;;;;;0.87;0.87;;;;;13.80;96006.00;;;;5034833;28;20522;-57
2023/07/31 03:44:00;;;;;;;0.50;0.50;;;;;13.80;96007.00;;;;5034003;28;20193;-57
2023/07/31 03:46:28;;;;;;;0.93;0.93;;;;;13.80;96007.00;;;;5033914;28;20688;-57
2023/07/31 03:48:55;;;;;;;0.70;0.70;;;;;13.60;96005.00;;;;5033870;28;20223;-57
2023/07/31 03:51:22;;;;;;;0.57;0.57;;;;;13.70;95994.00;;;;5033750;28;20204;-57
2023/07/31 03:53:50;;;;;;;0.57;0.57;;;;;13.80;95997.00;;;;5033771;28;20663;-57
2023/07/31 03:56:17;;;;;;;0.70;0.70;;;;;13.80;95999.00;;;;5033330;28;20216;-57
2023/07/31 03:58:46;;;;;;;0.53;0.53;;;;;13.90;95999.00;;;;5033316;28;20224;-57
2023/07/31 04:01:13;;;;;;;1.27;1.23;;;;;13.80;95998.00;;;;5033435;28;20200;-58
2023/07/31 04:03:41;;;;;;;0.53;0.53;;;;;13.90;96005.00;;;;5033638;28;20189;-58
2023/07/31 04:06:08;;;;;;;0.73;0.73;;;;;13.80;95989.00;;;;5033648;28;20564;-58
2023/07/31 04:08:35;;;;;;;0.60;0.60;;;;;13.80;95975.00;;;;5034837;28;20197;-57
2023/07/31 04:11:03;;;;;;;0.80;0.80;;;;;13.90;95984.00;;;;5035200;28;20193;-57
2023/07/31 04:13:31;;;;;;;0.53;0.53;;;;;14.00;95980.00;;;;5033915;28;20215;-57
2023/07/31 04:16:00;;;;;;;0.60;0.60;;;;;14.00;95982.00;;;;5033852;28;20260;-57
2023/07/31 04:18:28;;;;;;;0.67;0.67;;;;;14.00;95988.00;;;;5033403;28;20225;-57
2023/07/31 04:20:55;;;;;;;0.87;0.87;;;;;14.10;95993.00;;;;5033608;28;20506;-57
2023/07/31 04:23:23;;;;;;;0.90;0.90;;;;;14.20;95982.00;;;;5033567;28;20196;-58
2023/07/31 04:25:50;;;;;;;0.63;0.63;;;;;14.20;95990.00;;;;5032078;28;20294;-58
2023/07/31 04:28:17;;;;;;;0.60;0.60;;;;;14.20;95994.00;;;;5033549;28;20189;-57
2023/07/31 04:30:45;;;;;;;2.63;1.87;;;;;14.10;95995.00;;;;5033514;28;20200;-57
2023/07/31 04:33:14;;;;;;;0.80;0.80;;;;;14.20;95990.00;;;;5033252;28;20189;-57
2023/07/31 04:35:41;;;;;;;1.00;1.00;;;;;14.10;95991.00;;;;5033325;28;20197;-58
2023/07/31 04:38:09;;;;;;;0.90;0.90;;;;;14.30;95984.00;;;;5033023;28;20221;-57
2023/07/31 04:40:36;;;;;;;0.77;0.77;;;;;14.30;95986.00;;;;5032955;28;20193;-58
2023/07/31 04:43:04;;;;;;;0.90;0.90;;;;;14.30;95983.00;;;;5033154;28;20625;-57
2023/07/31 04:45:32;;;;;;;1.13;1.13;;;;;14.30;95986.00;;;;5033274;28;20200;-57
2023/07/31 04:47:59;;;;;;;0.83;0.83;;;;;14.20;95978.00;;;;5032974;28;20189;-57
2023/07/31 04:50:30;;;;;;;0.83;0.83;;;;;14.30;95970.00;;;;5033491;28;20200;-57
2023/07/31 04:52:58;;;;;;;0.60;0.60;;;;;14.40;95976.00;;;;5033103;28;20196;-58
2023/07/31 04:55:25;;;;;;;1.20;1.13;;;;;14.30;95975.00;;;;5033010;28;20201;-57
2023/07/31 04:57:53;;;;;;;0.93;0.93;;;;;14.40;95983.00;;;;5032856;28;20224;-58
2023/07/31 05:00:20;;;;;;;0.70;0.70;;;;;14.60;95980.00;;;;5033619;28;20275;-57
2023/07/31 05:02:48;;;;;;;1.53;1.43;;;;;14.60;95967.00;;;;5032947;28;20197;-57
2023/07/31 05:05:16;;;;;;;0.87;0.87;;;;;14.70;95979.00;;;;5033237;28;20197;-58
2023/07/31 05:07:44;;;;;;;0.90;0.90;;;;;14.80;95976.00;;;;5032816;28;20201;-57
2023/07/31 05:10:12;;;;;;;0.70;0.70;;;;;14.80;95961.00;;;;5034784;28;20201;-58
2023/07/31 05:12:39;;;;;;;0.70;0.70;;;;;14.80;95966.00;;;;5036804;28;20204;-57
2023/07/31 05:15:08;;;;;;;0.70;0.70;;;;;14.90;95963.00;;;;5036673;28;20655;-57
2023/07/31 05:17:35;;;;;;;0.40;0.40;;;;;14.90;95967.00;;;;5036943;28;20213;-57
2023/07/31 05:20:03;;;;;;;0.73;0.73;;;;;15.20;95974.00;;;;5036446;28;20204;-57
2023/07/31 05:22:30;;;;;;;1.47;1.33;;;;;15.10;95975.00;;;;5036930;28;20208;-57
2023/07/31 05:24:59;;;;;;;0.90;0.90;;;;;15.20;95986.00;;;;5036780;28;20291;-57
2023/07/31 05:27:27;;;;;;;0.63;0.63;;;;;15.20;95983.00;;;;5035089;28;20216;-57
2023/07/31 05:29:54;;;;;;;8.93;0.80;;;;;15.30;95990.00;;;;5036839;28;20208;-58
2023/07/31 05:32:22;;;;;;;1.03;1.03;;;;;15.30;95986.00;;;;5036298;28;20197;-56
2023/07/31 05:34:51;;;;;;;0.97;0.97;;;;;15.30;95985.00;;;;5032071;28;20205;-58
2023/07/31 05:37:19;;;;;;;0.83;0.83;;;;;15.20;95980.00;;;;5032292;28;20297;-57
2023/07/31 05:39:46;;;;;;;0.50;0.50;;;;;15.10;95980.00;;;;5034678;28;20553;-56
2023/07/31 05:42:15;;;;;;;0.60;0.60;;;;;15.00;95973.00;;;;5032556;28;20197;-56
2023/07/31 05:44:43;;;;;;;0.50;0.50;;;;;15.30;95978.00;;;;5032946;28;20201;-56
2023/07/31 05:47:10;;;;;;;0.63;0.63;;;;;15.20;95971.00;;;;5034076;28;20695;-56
2023/07/31 05:49:38;;;;;;;1.53;1.43;;;;;15.20;95975.00;;;;5035073;28;20204;-56
2023/07/31 05:52:06;;;;;;;1.00;1.00;;;;;15.30;95973.00;;;;5034715;28;20238;-56
2023/07/31 05:54:34;;;;;;;3.00;1.07;;;;;15.20;95970.00;;;;5033654;28;20258;-56
2023/07/31 05:57:01;;;;;;;0.73;0.73;;;;;15.40;95967.00;;;;5034494;28;20213;-56
2023/07/31 05:59:32;;;;;;;0.93;0.93;;;;;15.40;95962.00;;;;5034142;28;20209;-56
2023/07/31 06:02:00;;;;;;;0.67;0.67;;;;;15.60;95960.00;;;;5032828;28;20379;-56
2023/07/31 06:04:27;;;;;;;0.80;0.80;;;;;15.60;95957.00;;;;5032703;28;20284;-56
2023/07/31 06:06:55;;;;;;;0.57;0.57;;;;;15.60;95958.00;;;;5034006;28;20262;-56
2023/07/31 06:09:23;;;;;;;0.93;0.93;;;;;15.70;95955.00;;;;5033755;28;20272;-56
2023/07/31 06:11:50;;;;;;;0.60;0.60;;;;;15.80;95951.00;;;;5033505;28;20201;-56
2023/07/31 06:14:18;;;;;;;1.03;0.97;;;;;16.00;95939.00;;;;5033859;28;20200;-56
2023/07/31 06:16:47;;;;;;;0.50;0.50;;;;;16.10;95937.00;;;;5034093;28;20217;-57
2023/07/31 06:19:14;;;;;;;0.60;0.60;;;;;16.20;95950.00;;;;5032406;28;20219;-56
2023/07/31 06:21:43;;;;;;;0.80;0.80;;;;;16.30;95945.00;;;;5033536;28;20212;-56
2023/07/31 06:24:12;;;;;;;1.40;0.80;;;;;16.00;95955.00;;;;5033796;28;20315;-56
2023/07/31 06:26:39;;;;;;;0.83;0.83;;;;;16.30;95950.00;;;;5033867;28;20637;-56
2023/07/31 06:29:07;;;;;;;3.20;1.47;;;;;16.30;95940.00;;;;5033123;28;20277;-56
2023/07/31 06:31:34;;;;;;;0.50;0.50;;;;;16.20;95943.00;;;;5033300;28;20515;-56
2023/07/31 06:34:03;;;;;;;0.60;0.60;;;;;16.30;95942.00;;;;5032794;28;20279;-56
2023/07/31 06:36:30;;;;;;;0.90;0.90;;;;;16.20;95939.00;;;;5033071;28;20625;-56
2023/07/31 06:38:58;;;;;;;0.73;0.73;;;;;16.10;95947.00;;;;5033454;28;20628;-56
2023/07/31 06:41:25;;;;;;;1.00;1.00;;;;;16.40;95974.00;;;;5033258;28;20205;-56
2023/07/31 06:43:53;;;;;;;0.60;0.60;;;;;16.40;95961.00;;;;5032482;28;20208;-56
2023/07/31 06:46:20;;;;;;;0.50;0.50;;;;;16.20;95978.00;;;;5033095;28;20220;-56
2023/07/31 06:48:47;;;;;;;4.10;1.73;;;;;16.40;95964.00;;;;5032594;28;20274;-56
2023/07/31 06:51:16;;;;;;;0.60;0.60;;;;;16.30;95975.00;;;;5033220;28;20224;-56
2023/07/31 06:53:45;;;;;;;0.60;0.60;;;;;16.50;95972.00;;;;5032994;28;20279;-56
2023/07/31 06:56:12;;;;;;;0.60;0.60;;;;;16.50;95964.00;;;;5033380;28;20216;-56
2023/07/31 06:58:40;;;;;;;0.60;0.60;;;;;16.80;95960.00;;;;5032918;28;20219;-56
2023/07/31 07:01:07;;;;;;;0.40;0.40;;;;;16.70;95954.00;;;;5032900;28;20216;-56
2023/07/31 07:03:35;;;;;;;0.70;0.70;;;;;16.90;95948.00;;;;5033005;28;20200;-56
2023/07/31 07:06:02;;;;;;;0.83;0.83;;;;;17.10;95956.00;;;;5031909;28;20687;-56
2023/07/31 07:08:31;;;;;;;0.50;0.50;;;;;17.10;95956.00;;;;5033138;28;20192;-56
2023/07/31 07:10:58;;;;;;;5.13;1.47;;;;;17.00;95960.00;;;;5034413;28;20207;-56
2023/07/31 07:13:26;;;;;;;0.53;0.53;;;;;16.80;95954.00;;;;5033979;28;20200;-56
2023/07/31 07:15:53;;;;;;;0.60;0.60;;;;;17.10;95954.00;;;;5032985;28;20228;-56
2023/07/31 07:18:21;;;;;;;0.73;0.73;;;;;17.10;95953.00;;;;5033140;28;20220;-56
2023/07/31 07:20:50;;;;;;;0.77;0.77;;;;;16.70;95944.00;;;;5032682;28;20193;-56
2023/07/31 07:23:18;;;;;;;0.60;0.60;;;;;16.90;95951.00;;;;5033226;28;20691;-56
2023/07/31 07:25:47;;;;;;;0.70;0.70;;;;;17.00;95950.00;;;;5032670;28;20224;-56
2023/07/31 07:28:15;;;;;;;1.50;0.93;;;;;17.00;95941.00;;;;5032964;28;20203;-56
2023/07/31 07:30:43;;;;;;;4.97;1.40;;;;;17.20;95935.00;;;;5031741;28;20210;-57
2023/07/31 07:33:11;;;;;;;0.60;0.60;;;;;17.10;95932.00;;;;5031800;28;20201;-56
2023/07/31 07:35:39;;;;;;;0.70;0.70;;;;;17.20;95933.00;;;;5030964;28;20205;-56
2023/07/31 07:38:06;;;;;;;0.50;0.50;;;;;17.50;95939.00;;;;5032192;28;20270;-56
2023/07/31 07:40:34;;;;;;;0.90;0.90;;;;;17.60;95939.00;;;;5032441;28;20197;-56
2023/07/31 07:43:02;;;;;;;0.50;0.50;;;;;17.70;95939.00;;;;5032740;28;20200;-57
2023/07/31 07:45:30;;;;;;;0.70;0.70;;;;;17.90;95932.00;;;;5031894;28;20645;-56
2023/07/31 07:47:58;;;;;;;3.03;0.93;;;;;18.10;95930.00;;;;5032488;28;20702;-56
2023/07/31 07:50:26;;;;;;;2.77;0.93;;;;;18.10;95940.00;;;;5031971;28;20233;-58
2023/07/31 07:52:54;;;;;;;0.50;0.50;;;;;18.00;95937.00;;;;5031166;28;20205;-57
2023/07/31 07:55:21;;;;;;;0.80;0.80;;;;;18.10;95940.00;;;;5032227;28;20204;-57
2023/07/31 07:57:50;;;;;;;0.93;0.93;;;;;18.20;95941.00;;;;5031846;28;20234;-57
2023/07/31 08:00:19;;;;;;;1.60;1.20;;;;;17.60;95942.00;;;;5031816;28;20228;-57
2023/07/31 08:02:47;;;;;;;0.80;0.80;;;;;17.50;95935.00;;;;5031720;28;20201;-57
2023/07/31 08:05:14;;;;;;;0.83;0.80;;;;;17.80;95937.00;;;;5031841;28;20275;-57
2023/07/31 08:07:42;;;;;;;0.87;0.87;;;;;18.00;95936.00;;;;5031943;28;20334;-57
2023/07/31 08:10:10;;;;;;;1.50;1.27;;;;;18.20;95941.00;;;;5031621;28;20189;-57
2023/07/31 08:12:37;;;;;;;0.80;0.80;;;;;18.20;95936.00;;;;5032074;28;20563;-57
2023/07/31 08:15:06;;;;;;;1.30;1.20;;;;;17.40;95938.00;;;;5032273;28;20200;-57
2023/07/31 08:17:34;;;;;;;0.60;0.60;;;;;17.60;95933.00;;;;5031678;28;20216;-57
2023/07/31 08:20:02;;;;;;;0.70;0.70;;;;;17.90;95927.00;;;;5031854;28;20219;-57
2023/07/31 08:22:29;;;;;;;0.60;0.60;;;;;17.90;95930.00;;;;5030870;28;20208;-57
2023/07/31 08:24:57;;;;;;;0.53;0.53;;;;;18.10;95931.00;;;;5031616;28;20774;-57
2023/07/31 08:27:24;;;;;;;1.60;0.83;;;;;17.90;95926.00;;;;5031452;28;20248;-57
2023/07/31 08:29:53;;;;;;;0.70;0.70;;;;;18.00;95935.00;;;;5031939;28;20208;-57
2023/07/31 08:32:21;;;;;;;0.60;0.60;;;;;18.20;95928.00;;;;5031100;28;20208;-57
2023/07/31 08:34:50;;;;;;;0.70;0.70;;;;;17.90;95922.00;;;;5030950;28;20204;-57
2023/07/31 08:37:17;;;;;;;0.70;0.70;;;;;18.20;95926.00;;;;5030430;28;20220;-57
2023/07/31 08:39:45;;;;;;;0.50;0.50;;;;;18.00;95921.00;;;;5030860;28;20691;-57
2023/07/31 08:42:13;;;;;;;11.90;1.27;;;;;18.20;95921.00;;;;5031907;28;20193;-57
2023/07/31 08:44:40;;;;;;;1.13;1.10;;;;;18.00;95918.00;;;;5034266;28;20620;-57
2023/07/31 08:47:08;;;;;;;1.13;1.07;;;;;18.00;95920.00;;;;5035418;28;20609;-57
2023/07/31 08:49:37;;;;;;;0.70;0.70;;;;;18.10;95916.00;;;;5035395;28;20239;-57
2023/07/31 08:52:07;;;;;;;0.60;0.60;;;;;18.60;95920.00;;;;5034184;28;20203;-57
2023/07/31 08:54:35;;;;;;;0.60;0.60;;;;;18.60;95917.00;;;;5035517;28;20551;-57
2023/07/31 08:57:04;;;;;;;0.93;0.93;;;;;19.10;95911.00;;;;5035747;28;20270;-57
2023/07/31 08:59:35;;;;;;;0.73;0.73;;;;;18.90;95901.00;;;;5034858;28;20247;-57
2023/07/31 09:02:06;;;;;;;0.57;0.57;;;;;19.00;95879.00;;;;5035502;28;20271;-57
2023/07/31 09:04:34;;;;;;;0.50;0.50;;;;;18.60;95876.00;;;;5035548;28;20193;-57
2023/07/31 09:07:04;;;;;;;1.00;0.90;;;;;18.70;95886.00;;;;5035699;28;20303;-57
2023/07/31 09:09:33;;;;;;;0.50;0.50;;;;;18.80;95893.00;;;;5034921;28;20577;-57
2023/07/31 09:12:01;;;;;;;0.60;0.60;;;;;19.00;95885.00;;;;5035607;28;20624;-57
2023/07/31 09:14:29;;;;;;;0.80;0.80;;;;;18.80;95889.00;;;;5034750;28;20207;-57
2023/07/31 09:16:59;;;;;;;0.90;0.90;;;;;18.80;95888.00;;;;5034835;28;20224;-57
2023/07/31 09:19:27;;;;;;;1.17;1.07;;;;;18.80;95894.00;;;;5034846;28;20262;-57
2023/07/31 09:21:55;;;;;;;0.43;0.43;;;;;19.40;95898.00;;;;5034899;28;20197;-59
2023/07/31 09:24:30;;;;;;;0.97;0.93;;;;;19.80;95886.00;;;;5034878;28;20697;-57
2023/07/31 09:27:00;;;;;;;0.63;0.63;;;;;19.70;95899.00;;;;5035441;28;20655;-57
2023/07/31 09:29:29;;;;;;;0.60;0.60;;;;;19.60;95903.00;;;;5034821;28;20279;-57
2023/07/31 09:31:57;;;;;;;1.33;1.23;;;;;19.30;95911.00;;;;5033631;28;20569;-58
2023/07/31 09:34:31;;;;;;;0.60;0.60;;;;;18.90;95891.00;;;;5034400;28;20197;-57
2023/07/31 09:37:03;;;;;;;1.00;1.00;;;;;18.80;95877.00;;;;5034179;28;20221;-57
2023/07/31 09:39:31;;;;;;;0.80;0.80;;;;;19.00;95861.00;;;;5034958;28;20204;-57
2023/07/31 09:42:00;;;;;;;0.63;0.63;;;;;18.90;95872.00;;;;5034617;28;20201;-57
2023/07/31 09:44:40;;;;;;;0.50;0.50;;;;;19.00;95854.00;;;;5034491;28;20232;-59
2023/07/31 09:47:08;;;;;;;0.50;0.50;;;;;19.50;95847.00;;;;5030813;28;20219;-59
2023/07/31 09:49:35;;;;;;;0.60;0.60;;;;;19.60;95856.00;;;;5034442;28;20196;-57
2023/07/31 09:52:12;;;;;;;0.70;0.70;;;;;19.80;95851.00;;;;5034751;28;20592;-58
2023/07/31 09:54:39;;;;;;;0.70;0.70;;;;;19.60;95847.00;;;;5032621;28;20198;-57
2023/07/31 09:57:10;;;;;;;0.83;0.83;;;;;19.70;95843.00;;;;5033133;28;20243;-58
2023/07/31 09:59:38;;;;;;;1.50;0.97;;;;;20.10;95829.00;;;;5034449;28;20241;-57
2023/07/31 10:02:10;;;;;;;1.23;1.20;;;;;20.20;95839.00;;;;5034474;28;20205;-57
2023/07/31 10:04:38;;;;;;;1.17;1.17;;;;;19.90;95843.00;;;;5034515;28;20197;-57
2023/07/31 10:07:06;;;;;;;0.63;0.63;;;;;19.90;95825.00;;;;5034164;28;20216;-57
2023/07/31 10:09:35;;;;;;;1.13;1.03;;;;;20.30;95838.00;;;;5034512;28;20196;-57
2023/07/31 10:12:09;;;;;;;0.63;0.63;;;;;19.90;95827.00;;;;5034044;28;20668;-57
2023/07/31 10:14:39;;;;;;;3.27;1.00;;;;;19.90;95804.00;;;;5030252;28;20185;-57
2023/07/31 10:17:08;;;;;;;0.50;0.50;;;;;19.90;95822.00;;;;5029972;28;20227;-57
2023/07/31 10:19:37;;;;;;;0.87;0.87;;;;;20.00;95812.00;;;;5034238;28;20581;-57
2023/07/31 10:22:05;;;;;;;1.13;1.13;;;;;20.20;95811.00;;;;5034125;28;20200;-57
2023/07/31 10:24:33;;;;;;;1.00;1.00;;;;;20.60;95816.00;;;;5034280;28;20207;-57
2023/07/31 10:27:02;;;;;;;0.60;0.60;;;;;21.10;95800.00;;;;5034325;28;20304;-58
2023/07/31 10:29:30;;;;;;;0.80;0.80;;;;;21.00;95813.00;;;;5032942;28;20280;-58
2023/07/31 10:32:00;;;;;;;1.13;0.88;;;;;20.70;95806.00;;;;5033811;28;20540;-57
2023/07/31 10:34:28;;;;;;;1.00;1.00;;;;;20.80;95788.00;;;;5033946;28;20196;-58
2023/07/31 10:37:23;;;;;;;0.40;0.40;;;;;21.30;95796.00;;;;5033594;28;20733;-57
2023/07/31 10:39:59;;;;;;;1.20;1.20;;;;;21.80;95791.00;;;;5032786;28;20209;-59
2023/07/31 10:42:34;;;;;;;1.25;0.95;;;;;21.30;95790.00;;;;5033326;28;20199;-58
2023/07/31 10:45:03;;;;;;;1.55;1.45;;;;;21.80;95791.00;;;;5033887;28;20191;-58
2023/07/31 10:47:32;;;;;;;0.50;0.50;;;;;21.50;95798.00;;;;5033404;28;20545;-58
2023/07/31 10:50:18;;;;;;;1.50;1.07;;;;;21.20;95789.00;;;;5033302;28;20205;-58
2023/07/31 10:52:50;;;;;;;0.70;0.70;;;;;21.70;95793.00;;;;5029480;28;20195;-58
2023/07/31 10:55:28;;;;;;;0.45;0.45;;;;;21.70;95789.00;;;;5033239;28;20201;-58
2023/07/31 10:57:56;;;;;;;0.75;0.75;;;;;21.50;95793.00;;;;5033262;28;20231;-60
2023/07/31 11:00:27;;;;;;;0.50;0.50;;;;;21.60;95796.00;;;;5033495;28;20249;-59
2023/07/31 11:03:01;;;;;;;0.95;0.95;;;;;21.30;95797.00;;;;5032862;28;20563;-58
2023/07/31 11:05:49;;;;;;;0.73;0.73;;;;;21.20;95799.00;;;;5033809;28;20310;-59
2023/07/31 11:08:19;;;;;;;0.55;0.55;;;;;21.10;95804.00;;;;5032238;28;20193;-58
2023/07/31 11:10:48;;;;;;;0.60;0.60;;;;;20.80;95821.00;;;;5032835;28;20212;-58
2023/07/31 11:13:15;;;;;;;1.13;1.13;;;;;20.50;95819.00;;;;5032763;28;20200;-58
2023/07/31 11:15:43;;;;;;;0.67;0.67;;;;;20.50;95818.00;;;;5031185;28;20232;-58
2023/07/31 11:18:12;;;;;;;0.93;0.93;;;;;20.90;95824.00;;;;5032342;28;20231;-58
2023/07/31 11:20:40;;;;;;;0.57;0.57;;;;;20.70;95832.00;;;;5033131;28;20303;-58
2023/07/31 11:23:10;;;;;;;0.77;0.77;;;;;20.50;95827.00;;;;5032552;28;20247;-58
2023/07/31 11:25:40;;;;;;;1.80;0.93;;;;;20.30;95821.00;;;;5032733;28;20193;-58
2023/07/31 11:28:09;;;;;;;1.23;1.23;;;;;20.30;95821.00;;;;5032118;28;20203;-58
2023/07/31 11:30:37;;;;;;;0.80;0.80;;;;;20.60;95815.00;;;;5033132;28;20193;-59
2023/07/31 11:33:06;;;;;;;1.67;1.27;;;;;20.50;95811.00;;;;5031634;28;20541;-59
2023/07/31 11:35:36;;;;;;;1.00;1.00;;;;;20.70;95801.00;;;;5032807;28;20267;-58
2023/07/31 11:38:03;;;;;;;0.60;0.60;;;;;20.70;95806.00;;;;5028067;28;20207;-58
2023/07/31 11:40:31;;;;;;;1.43;1.13;;;;;20.20;95806.00;;;;5028834;28;20220;-58
2023/07/31 11:42:59;;;;;;;0.90;0.90;;;;;20.50;95799.00;;;;5032881;28;20281;-59
2023/07/31 11:45:28;;;;;;;1.47;1.37;;;;;20.30;95801.00;;;;5030932;28;20199;-58
2023/07/31 11:47:57;;;;;;;1.37;1.03;;;;;20.50;95791.00;;;;5032975;28;20196;-58
2023/07/31 11:50:26;;;;;;;1.40;1.00;;;;;20.70;95790.00;;;;5027824;28;20201;-58
2023/07/31 11:52:58;;;;;;;1.00;1.00;;;;;20.50;95781.00;;;;5031960;28;20258;-58
2023/07/31 11:55:26;;;;;;;1.60;1.50;;;;;20.20;95784.00;;;;5032452;28;20196;-59
2023/07/31 11:57:56;;;;;;;0.77;0.77;;;;;20.10;95781.00;;;;5032593;28;20239;-59
2023/07/31 12:00:24;;;;;;;1.20;1.10;;;;;19.90;95783.00;;;;5031768;28;20316;-59
2023/07/31 12:02:52;;;;;;;0.50;0.50;;;;;20.00;95788.00;;;;5032491;28;20201;-59
2023/07/31 12:05:20;;;;;;;0.70;0.70;;;;;19.90;95780.00;;;;5031647;28;20655;-58
2023/07/31 12:07:50;;;;;;;0.33;0.33;;;;;20.40;95772.00;;;;5032131;28;20222;-58
2023/07/31 12:10:32;;;;;;;0.70;0.70;;;;;20.40;95774.00;;;;5031870;28;20193;-58
2023/07/31 12:13:05;;;;;;;1.20;0.70;;;;;20.60;95777.00;;;;5031641;28;20586;-58
2023/07/31 12:15:38;;;;;;;0.73;0.73;;;;;20.70;95783.00;;;;5031217;28;20231;-59
2023/07/31 12:18:10;;;;;;;1.23;1.23;;;;;20.60;95763.00;;;;5031850;28;20196;-57
2023/07/31 12:20:43;;;;;;;1.77;1.67;;;;;20.60;95765.00;;;;5031101;28;20725;-58
2023/07/31 12:23:15;;;;;;;0.60;0.60;;;;;20.30;95768.00;;;;5031908;28;20214;-58
2023/07/31 12:25:45;;;;;;;0.80;0.80;;;;;20.40;95757.00;;;;5030983;28;20195;-57